Znamenskiy, Russia

1:27 PM MSK on May 24, 2015 (GMT +0300)
Pashkovsky | | Change Station
CLOSE
Current Station
Airport
Location: Krasnodar,
Elevation: 112 ft
Nearby Weather Stations

Elev 112 ft 45.03 °N, 39.15 °E | Updated 27 minutes ago

Scattered Clouds
Scattered Clouds
79 °F
Feels Like 79 °F
N
9
Wind Variable Wind from South

Today
High -- | Low -- °F
--% Chance of Precip.
Yesterday
High -- | Low -- °F
Precip. -- in
4:45 AM 7:55 PM
Waxing Crescent, 38% visible
Pressure 29.86 in
Visibility 6.2 miles
Clouds Scattered Clouds 4000 ft
Dew Point 61 °F
Humidity 54%
Rainfall 0.00 in
Snow Depth Not available.
UV 8 out of 12
Pollen Not available.
Air Quality Not available.
Flu Activity Not available.
METAR URKK 241000Z 17004MPS 130V200 9999 SCT040 26/16 Q1011 R23C/CLRD70 NOSIG RMK QFE755

More Conditions Fewer Conditions

Pressure 29.86 in
Visibility 6.2 miles
Clouds Scattered Clouds 4000 ft
Dew Point 61 °F
Humidity 54%
Rainfall 0.00 in
Snow Depth Not available.
UV 8 out of 12
Pollen Not available.
Air Quality Not available.
Flu Activity Not available.
METAR URKK 241000Z 17004MPS 130V200 9999 SCT040 26/16 Q1011 R23C/CLRD70 NOSIG RMK QFE755

More Conditions Fewer Conditions

10-Day Weather Forecast

Almanac

Astronomy

May. 24, 2015 Rise Set
Actual Time
Civil Twilight
Nautical Twilight
Astronomical Twilight
Moon
Length of Visible Light
Length of Day
Tomorrow will be .
, % of the Moon is Illuminated

Today's Extremes

Country Highs Country Lows

Community

WunderPhotos

Upload Photos

1,823,710 photos uploaded!

WunderBlogs® & News

Nearby

Air Quality

  Air Quality AQ Index Pollutant
Not available.

Snow Depth

Station Depth Elevation

Earthquake Activity

City Distance Mag. Time & Date
Minimum magnitude displayed is 2.5.

Coastal Water Temperatures

Place Temperature

Stations

Nearby Weather Stations

Station Location Temp. Windchill Dew Point Humidity Wind Precip. Elev Updated Type